sensor_id;sensor_type;location;lat;lon;timestamp;P1;durP1;ratioP1;P2;durP2;ratioP2
10246;SDS011;5168;47.854;7.944;2023-04-03T00:01:28;2.93;;;2.73;;
10246;SDS011;5168;47.854;7.944;2023-04-03T00:03:54;2.40;;;2.30;;
10246;SDS011;5168;47.854;7.944;2023-04-03T00:06:21;2.50;;;2.40;;
10246;SDS011;5168;47.854;7.944;2023-04-03T00:08:47;2.60;;;2.50;;
10246;SDS011;5168;47.854;7.944;2023-04-03T00:11:13;2.30;;;2.20;;
10246;SDS011;5168;47.854;7.944;2023-04-03T00:13:40;2.43;;;2.33;;
10246;SDS011;5168;47.854;7.944;2023-04-03T00:16:07;2.40;;;2.30;;
10246;SDS011;5168;47.854;7.944;2023-04-03T00:18:33;2.80;;;2.60;;
10246;SDS011;5168;47.854;7.944;2023-04-03T00:20:59;2.40;;;2.30;;
10246;SDS011;5168;47.854;7.944;2023-04-03T00:23:25;2.50;;;2.40;;
10246;SDS011;5168;47.854;7.944;2023-04-03T00:25:52;2.40;;;2.30;;
10246;SDS011;5168;47.854;7.944;2023-04-03T00:28:17;2.30;;;2.20;;
10246;SDS011;5168;47.854;7.944;2023-04-03T00:30:43;2.30;;;2.20;;
10246;SDS011;5168;47.854;7.944;2023-04-03T00:33:11;2.30;;;2.20;;
10246;SDS011;5168;47.854;7.944;2023-04-03T00:35:37;2.50;;;2.30;;
10246;SDS011;5168;47.854;7.944;2023-04-03T00:38:03;2.57;;;2.37;;
10246;SDS011;5168;47.854;7.944;2023-04-03T00:40:32;2.50;;;2.30;;
10246;SDS011;5168;47.854;7.944;2023-04-03T00:43:00;2.10;;;2.00;;
10246;SDS011;5168;47.854;7.944;2023-04-03T00:45:27;1.97;;;1.87;;
10246;SDS011;5168;47.854;7.944;2023-04-03T00:47:55;2.10;;;2.00;;
10246;SDS011;5168;47.854;7.944;2023-04-03T00:50:22;2.33;;;2.20;;
10246;SDS011;5168;47.854;7.944;2023-04-03T00:52:48;2.20;;;2.10;;
10246;SDS011;5168;47.854;7.944;2023-04-03T00:55:14;2.03;;;1.93;;
10246;SDS011;5168;47.854;7.944;2023-04-03T00:57:41;2.10;;;2.00;;
10246;SDS011;5168;47.854;7.944;2023-04-03T01:00:08;2.10;;;2.00;;
10246;SDS011;5168;47.854;7.944;2023-04-03T01:02:37;2.00;;;1.90;;
10246;SDS011;5168;47.854;7.944;2023-04-03T01:05:05;2.30;;;2.20;;
10246;SDS011;5168;47.854;7.944;2023-04-03T01:07:31;2.30;;;2.20;;
10246;SDS011;5168;47.854;7.944;2023-04-03T01:10:00;2.47;;;2.27;;
10246;SDS011;5168;47.854;7.944;2023-04-03T01:12:32;2.40;;;2.30;;
10246;SDS011;5168;47.854;7.944;2023-04-03T01:15:05;2.00;;;1.90;;
10246;SDS011;5168;47.854;7.944;2023-04-03T01:22:52;2.23;;;2.13;;
10246;SDS011;5168;47.854;7.944;2023-04-03T01:28:18;2.23;;;2.13;;
10246;SDS011;5168;47.854;7.944;2023-04-03T01:30:48;2.40;;;2.30;;
10246;SDS011;5168;47.854;7.944;2023-04-03T01:33:21;2.30;;;2.20;;
10246;SDS011;5168;47.854;7.944;2023-04-03T01:35:47;2.40;;;2.30;;
10246;SDS011;5168;47.854;7.944;2023-04-03T01:38:12;2.73;;;2.53;;
10246;SDS011;5168;47.854;7.944;2023-04-03T01:40:39;2.50;;;2.30;;
10246;SDS011;5168;47.854;7.944;2023-04-03T01:43:05;2.43;;;2.33;;
10246;SDS011;5168;47.854;7.944;2023-04-03T01:45:30;2.80;;;2.60;;
10246;SDS011;5168;47.854;7.944;2023-04-03T01:47:56;2.70;;;2.50;;
10246;SDS011;5168;47.854;7.944;2023-04-03T01:50:21;2.60;;;2.43;;
10246;SDS011;5168;47.854;7.944;2023-04-03T01:52:47;2.30;;;2.20;;
10246;SDS011;5168;47.854;7.944;2023-04-03T01:55:13;2.80;;;2.60;;
10246;SDS011;5168;47.854;7.944;2023-04-03T01:57:40;2.70;;;2.50;;
10246;SDS011;5168;47.854;7.944;2023-04-03T02:00:06;2.57;;;2.40;;
10246;SDS011;5168;47.854;7.944;2023-04-03T02:02:32;2.60;;;2.40;;
10246;SDS011;5168;47.854;7.944;2023-04-03T02:04:58;2.50;;;2.30;;
10246;SDS011;5168;47.854;7.944;2023-04-03T02:07:23;2.10;;;2.00;;
10246;SDS011;5168;47.854;7.944;2023-04-03T02:09:49;2.40;;;2.30;;
10246;SDS011;5168;47.854;7.944;2023-04-03T02:12:15;2.50;;;2.30;;
10246;SDS011;5168;47.854;7.944;2023-04-03T02:14:41;2.30;;;2.20;;
10246;SDS011;5168;47.854;7.944;2023-04-03T02:17:06;2.47;;;2.37;;
10246;SDS011;5168;47.854;7.944;2023-04-03T02:19:34;2.20;;;2.10;;
10246;SDS011;5168;47.854;7.944;2023-04-03T02:22:00;2.60;;;2.40;;
10246;SDS011;5168;47.854;7.944;2023-04-03T02:24:27;2.40;;;2.30;;
10246;SDS011;5168;47.854;7.944;2023-04-03T02:26:53;2.30;;;2.20;;
10246;SDS011;5168;47.854;7.944;2023-04-03T02:29:18;2.20;;;2.10;;
10246;SDS011;5168;47.854;7.944;2023-04-03T02:31:44;2.20;;;2.10;;
10246;SDS011;5168;47.854;7.944;2023-04-03T02:34:10;2.27;;;2.17;;
10246;SDS011;5168;47.854;7.944;2023-04-03T02:36:36;2.33;;;2.23;;
10246;SDS011;5168;47.854;7.944;2023-04-03T02:39:02;2.10;;;2.00;;
10246;SDS011;5168;47.854;7.944;2023-04-03T02:41:28;2.70;;;2.50;;
10246;SDS011;5168;47.854;7.944;2023-04-03T02:43:59;2.43;;;2.23;;
10246;SDS011;5168;47.854;7.944;2023-04-03T02:46:26;2.00;;;1.90;;
10246;SDS011;5168;47.854;7.944;2023-04-03T02:48:51;2.23;;;2.13;;
10246;SDS011;5168;47.854;7.944;2023-04-03T02:51:17;2.07;;;1.97;;
10246;SDS011;5168;47.854;7.944;2023-04-03T02:53:42;2.07;;;1.97;;
10246;SDS011;5168;47.854;7.944;2023-04-03T02:56:08;1.83;;;1.73;;
10246;SDS011;5168;47.854;7.944;2023-04-03T02:58:34;2.00;;;1.90;;
10246;SDS011;5168;47.854;7.944;2023-04-03T03:01:00;2.00;;;1.90;;
10246;SDS011;5168;47.854;7.944;2023-04-03T03:03:26;1.80;;;1.70;;
10246;SDS011;5168;47.854;7.944;2023-04-03T03:06:00;2.00;;;1.90;;
10246;SDS011;5168;47.854;7.944;2023-04-03T03:08:27;2.07;;;1.97;;
10246;SDS011;5168;47.854;7.944;2023-04-03T03:10:53;1.93;;;1.83;;
10246;SDS011;5168;47.854;7.944;2023-04-03T03:13:19;2.20;;;2.10;;
10246;SDS011;5168;47.854;7.944;2023-04-03T03:15:45;2.13;;;2.03;;
10246;SDS011;5168;47.854;7.944;2023-04-03T03:18:10;1.97;;;1.87;;
10246;SDS011;5168;47.854;7.944;2023-04-03T03:20:36;2.10;;;2.00;;
10246;SDS011;5168;47.854;7.944;2023-04-03T03:23:01;2.00;;;1.90;;
10246;SDS011;5168;47.854;7.944;2023-04-03T03:25:27;2.13;;;2.03;;
10246;SDS011;5168;47.854;7.944;2023-04-03T03:27:53;2.20;;;2.10;;
10246;SDS011;5168;47.854;7.944;2023-04-03T03:30:19;2.10;;;2.00;;
10246;SDS011;5168;47.854;7.944;2023-04-03T03:32:44;1.97;;;1.87;;
10246;SDS011;5168;47.854;7.944;2023-04-03T03:35:10;2.00;;;1.90;;
10246;SDS011;5168;47.854;7.944;2023-04-03T03:37:36;2.07;;;1.97;;
10246;SDS011;5168;47.854;7.944;2023-04-03T03:40:02;2.13;;;2.03;;
10246;SDS011;5168;47.854;7.944;2023-04-03T03:42:28;2.33;;;1.90;;
10246;SDS011;5168;47.854;7.944;2023-04-03T03:44:53;1.90;;;1.80;;
10246;SDS011;5168;47.854;7.944;2023-04-03T03:47:19;2.20;;;2.10;;
10246;SDS011;5168;47.854;7.944;2023-04-03T03:49:45;2.07;;;1.97;;
10246;SDS011;5168;47.854;7.944;2023-04-03T03:52:11;2.10;;;2.00;;
10246;SDS011;5168;47.854;7.944;2023-04-03T03:54:36;2.17;;;2.07;;
10246;SDS011;5168;47.854;7.944;2023-04-03T03:57:03;2.10;;;2.00;;
10246;SDS011;5168;47.854;7.944;2023-04-03T03:59:28;2.07;;;1.97;;
10246;SDS011;5168;47.854;7.944;2023-04-03T04:01:54;2.30;;;2.20;;
10246;SDS011;5168;47.854;7.944;2023-04-03T04:04:20;2.00;;;1.90;;
10246;SDS011;5168;47.854;7.944;2023-04-03T04:06:46;2.10;;;2.00;;
10246;SDS011;5168;47.854;7.944;2023-04-03T04:09:12;2.20;;;2.10;;
10246;SDS011;5168;47.854;7.944;2023-04-03T04:11:38;2.00;;;1.90;;
10246;SDS011;5168;47.854;7.944;2023-04-03T04:14:05;2.00;;;1.90;;
10246;SDS011;5168;47.854;7.944;2023-04-03T04:16:31;2.40;;;2.30;;
10246;SDS011;5168;47.854;7.944;2023-04-03T04:18:57;2.17;;;2.07;;
10246;SDS011;5168;47.854;7.944;2023-04-03T04:21:22;2.50;;;2.30;;
10246;SDS011;5168;47.854;7.944;2023-04-03T04:23:48;2.87;;;2.67;;
10246;SDS011;5168;47.854;7.944;2023-04-03T04:26:14;2.70;;;2.50;;
10246;SDS011;5168;47.854;7.944;2023-04-03T04:28:39;2.57;;;2.47;;
10246;SDS011;5168;47.854;7.944;2023-04-03T04:31:05;2.77;;;2.57;;
10246;SDS011;5168;47.854;7.944;2023-04-03T04:33:31;2.53;;;2.43;;
10246;SDS011;5168;47.854;7.944;2023-04-03T04:35:57;2.53;;;2.33;;
10246;SDS011;5168;47.854;7.944;2023-04-03T04:38:22;2.60;;;2.43;;
10246;SDS011;5168;47.854;7.944;2023-04-03T04:40:48;2.60;;;2.40;;
10246;SDS011;5168;47.854;7.944;2023-04-03T04:43:14;3.00;;;2.80;;
10246;SDS011;5168;47.854;7.944;2023-04-03T04:45:40;2.70;;;2.50;;
10246;SDS011;5168;47.854;7.944;2023-04-03T04:48:06;2.80;;;2.60;;
10246;SDS011;5168;47.854;7.944;2023-04-03T04:50:32;3.03;;;2.83;;
10246;SDS011;5168;47.854;7.944;2023-04-03T04:52:58;2.93;;;2.73;;
10246;SDS011;5168;47.854;7.944;2023-04-03T04:55:23;2.80;;;2.60;;
10246;SDS011;5168;47.854;7.944;2023-04-03T04:57:49;3.17;;;2.97;;
10246;SDS011;5168;47.854;7.944;2023-04-03T05:00:15;3.07;;;2.87;;
10246;SDS011;5168;47.854;7.944;2023-04-03T05:02:41;3.33;;;3.03;;
10246;SDS011;5168;47.854;7.944;2023-04-03T05:05:07;3.23;;;3.00;;
10246;SDS011;5168;47.854;7.944;2023-04-03T05:07:33;3.50;;;3.20;;
10246;SDS011;5168;47.854;7.944;2023-04-03T05:10:00;4.50;;;4.00;;
10246;SDS011;5168;47.854;7.944;2023-04-03T05:12:27;3.47;;;3.20;;
10246;SDS011;5168;47.854;7.944;2023-04-03T05:14:53;3.17;;;2.97;;
10246;SDS011;5168;47.854;7.944;2023-04-03T05:17:19;3.30;;;3.00;;
10246;SDS011;5168;47.854;7.944;2023-04-03T05:19:45;3.57;;;3.20;;
10246;SDS011;5168;47.854;7.944;2023-04-03T05:22:11;3.00;;;2.80;;
10246;SDS011;5168;47.854;7.944;2023-04-03T05:24:36;2.97;;;2.77;;
10246;SDS011;5168;47.854;7.944;2023-04-03T05:27:02;3.27;;;3.07;;
10246;SDS011;5168;47.854;7.944;2023-04-03T05:29:28;3.57;;;3.27;;
10246;SDS011;5168;47.854;7.944;2023-04-03T05:31:53;3.63;;;3.33;;
10246;SDS011;5168;47.854;7.944;2023-04-03T05:34:19;3.20;;;3.00;;
10246;SDS011;5168;47.854;7.944;2023-04-03T05:36:45;3.67;;;3.37;;
10246;SDS011;5168;47.854;7.944;2023-04-03T05:39:10;3.50;;;3.20;;
10246;SDS011;5168;47.854;7.944;2023-04-03T05:41:36;3.40;;;3.10;;
10246;SDS011;5168;47.854;7.944;2023-04-03T05:44:02;3.33;;;3.13;;
10246;SDS011;5168;47.854;7.944;2023-04-03T05:46:28;3.47;;;3.27;;
10246;SDS011;5168;47.854;7.944;2023-04-03T05:48:54;3.40;;;3.10;;
10246;SDS011;5168;47.854;7.944;2023-04-03T05:51:24;3.70;;;3.40;;
10246;SDS011;5168;47.854;7.944;2023-04-03T05:54:11;3.40;;;3.10;;
10246;SDS011;5168;47.854;7.944;2023-04-03T05:56:40;2.93;;;2.73;;
10246;SDS011;5168;47.854;7.944;2023-04-03T05:59:06;3.43;;;3.20;;
10246;SDS011;5168;47.854;7.944;2023-04-03T06:01:32;2.80;;;2.60;;
10246;SDS011;5168;47.854;7.944;2023-04-03T06:03:59;3.20;;;3.00;;
10246;SDS011;5168;47.854;7.944;2023-04-03T06:06:24;3.10;;;2.80;;
10246;SDS011;5168;47.854;7.944;2023-04-03T06:08:50;3.30;;;3.10;;
10246;SDS011;5168;47.854;7.944;2023-04-03T06:11:16;3.10;;;2.90;;
10246;SDS011;5168;47.854;7.944;2023-04-03T06:13:41;3.10;;;2.90;;
10246;SDS011;5168;47.854;7.944;2023-04-03T06:16:08;3.10;;;2.90;;
10246;SDS011;5168;47.854;7.944;2023-04-03T06:18:39;2.90;;;2.70;;
10246;SDS011;5168;47.854;7.944;2023-04-03T06:21:06;3.10;;;2.90;;
10246;SDS011;5168;47.854;7.944;2023-04-03T06:23:32;3.00;;;2.80;;
10246;SDS011;5168;47.854;7.944;2023-04-03T06:25:58;3.00;;;2.80;;
10246;SDS011;5168;47.854;7.944;2023-04-03T06:28:25;3.23;;;3.00;;
10246;SDS011;5168;47.854;7.944;2023-04-03T06:30:50;2.80;;;2.60;;
10246;SDS011;5168;47.854;7.944;2023-04-03T06:33:16;2.93;;;2.70;;
10246;SDS011;5168;47.854;7.944;2023-04-03T06:35:42;2.80;;;2.60;;
10246;SDS011;5168;47.854;7.944;2023-04-03T06:38:07;2.90;;;2.70;;
10246;SDS011;5168;47.854;7.944;2023-04-03T06:40:34;3.00;;;2.80;;
10246;SDS011;5168;47.854;7.944;2023-04-03T06:43:00;3.00;;;2.80;;
10246;SDS011;5168;47.854;7.944;2023-04-03T06:45:26;2.93;;;2.73;;
10246;SDS011;5168;47.854;7.944;2023-04-03T06:47:52;3.00;;;2.80;;
10246;SDS011;5168;47.854;7.944;2023-04-03T06:50:18;2.90;;;2.70;;
10246;SDS011;5168;47.854;7.944;2023-04-03T06:52:44;3.17;;;2.97;;
10246;SDS011;5168;47.854;7.944;2023-04-03T06:55:10;3.30;;;3.10;;
10246;SDS011;5168;47.854;7.944;2023-04-03T06:57:36;3.70;;;3.40;;
10246;SDS011;5168;47.854;7.944;2023-04-03T07:00:03;3.30;;;2.97;;
10246;SDS011;5168;47.854;7.944;2023-04-03T07:02:30;3.20;;;3.00;;
10246;SDS011;5168;47.854;7.944;2023-04-03T07:04:55;3.20;;;3.00;;
10246;SDS011;5168;47.854;7.944;2023-04-03T07:07:21;3.37;;;3.07;;
10246;SDS011;5168;47.854;7.944;2023-04-03T07:09:47;3.20;;;2.90;;
10246;SDS011;5168;47.854;7.944;2023-04-03T07:12:13;3.43;;;3.13;;
10246;SDS011;5168;47.854;7.944;2023-04-03T07:14:39;3.33;;;3.13;;
10246;SDS011;5168;47.854;7.944;2023-04-03T07:17:05;3.40;;;3.10;;
10246;SDS011;5168;47.854;7.944;2023-04-03T07:19:31;3.10;;;2.90;;
10246;SDS011;5168;47.854;7.944;2023-04-03T07:21:57;3.10;;;2.90;;
10246;SDS011;5168;47.854;7.944;2023-04-03T07:24:22;3.00;;;2.80;;
10246;SDS011;5168;47.854;7.944;2023-04-03T07:26:52;3.07;;;2.87;;
10246;SDS011;5168;47.854;7.944;2023-04-03T07:29:18;3.60;;;3.37;;
10246;SDS011;5168;47.854;7.944;2023-04-03T07:31:45;3.70;;;3.40;;
10246;SDS011;5168;47.854;7.944;2023-04-03T07:34:10;3.43;;;3.13;;
10246;SDS011;5168;47.854;7.944;2023-04-03T07:36:36;3.50;;;3.20;;
10246;SDS011;5168;47.854;7.944;2023-04-03T07:39:02;3.40;;;3.20;;
10246;SDS011;5168;47.854;7.944;2023-04-03T07:41:28;3.70;;;3.40;;
10246;SDS011;5168;47.854;7.944;2023-04-03T07:43:55;3.93;;;3.63;;
10246;SDS011;5168;47.854;7.944;2023-04-03T07:46:21;3.60;;;3.30;;
10246;SDS011;5168;47.854;7.944;2023-04-03T07:48:47;3.90;;;3.60;;
10246;SDS011;5168;47.854;7.944;2023-04-03T07:51:13;4.00;;;3.70;;
10246;SDS011;5168;47.854;7.944;2023-04-03T07:53:39;4.07;;;3.77;;
10246;SDS011;5168;47.854;7.944;2023-04-03T07:56:05;3.53;;;3.27;;
10246;SDS011;5168;47.854;7.944;2023-04-03T07:58:31;3.63;;;3.40;;
10246;SDS011;5168;47.854;7.944;2023-04-03T08:00:57;3.67;;;3.37;;
10246;SDS011;5168;47.854;7.944;2023-04-03T08:03:23;4.23;;;3.83;;
10246;SDS011;5168;47.854;7.944;2023-04-03T08:05:49;4.10;;;3.80;;
10246;SDS011;5168;47.854;7.944;2023-04-03T08:08:17;4.17;;;3.60;;
10246;SDS011;5168;47.854;7.944;2023-04-03T08:10:47;4.03;;;3.73;;
10246;SDS011;5168;47.854;7.944;2023-04-03T08:13:18;3.90;;;3.60;;
10246;SDS011;5168;47.854;7.944;2023-04-03T08:15:44;4.10;;;3.80;;
10246;SDS011;5168;47.854;7.944;2023-04-03T08:18:10;4.07;;;3.77;;
10246;SDS011;5168;47.854;7.944;2023-04-03T08:20:37;3.67;;;3.43;;
10246;SDS011;5168;47.854;7.944;2023-04-03T08:23:04;4.40;;;4.00;;
10246;SDS011;5168;47.854;7.944;2023-04-03T08:25:31;3.77;;;3.47;;
10246;SDS011;5168;47.854;7.944;2023-04-03T08:27:56;3.90;;;3.60;;
10246;SDS011;5168;47.854;7.944;2023-04-03T08:30:22;3.50;;;3.30;;
10246;SDS011;5168;47.854;7.944;2023-04-03T08:32:48;4.00;;;3.60;;
10246;SDS011;5168;47.854;7.944;2023-04-03T08:35:14;4.30;;;3.90;;
10246;SDS011;5168;47.854;7.944;2023-04-03T08:37:40;4.33;;;3.93;;
10246;SDS011;5168;47.854;7.944;2023-04-03T08:40:06;4.20;;;3.90;;
10246;SDS011;5168;47.854;7.944;2023-04-03T08:47:38;4.20;;;3.90;;
10246;SDS011;5168;47.854;7.944;2023-04-03T08:50:04;4.27;;;3.90;;
10246;SDS011;5168;47.854;7.944;2023-04-03T08:55:20;4.87;;;4.47;;
10246;SDS011;5168;47.854;7.944;2023-04-03T09:03:15;4.50;;;4.10;;
10246;SDS011;5168;47.854;7.944;2023-04-03T09:10:52;4.00;;;3.70;;
10246;SDS011;5168;47.854;7.944;2023-04-03T09:13:44;4.20;;;3.77;;
10246;SDS011;5168;47.854;7.944;2023-04-03T09:17:08;3.90;;;3.60;;
10246;SDS011;5168;47.854;7.944;2023-04-03T09:19:19;4.53;;;4.13;;
10246;SDS011;5168;47.854;7.944;2023-04-03T09:21:57;4.00;;;3.70;;
10246;SDS011;5168;47.854;7.944;2023-04-03T09:24:24;4.67;;;4.07;;
10246;SDS011;5168;47.854;7.944;2023-04-03T09:26:53;3.83;;;3.53;;
10246;SDS011;5168;47.854;7.944;2023-04-03T09:29:25;4.10;;;3.80;;
10246;SDS011;5168;47.854;7.944;2023-04-03T09:31:52;4.40;;;3.47;;
10246;SDS011;5168;47.854;7.944;2023-04-03T09:34:26;4.20;;;3.80;;
10246;SDS011;5168;47.854;7.944;2023-04-03T09:36:56;3.50;;;3.20;;
10246;SDS011;5168;47.854;7.944;2023-04-03T09:39:25;3.07;;;2.87;;
10246;SDS011;5168;47.854;7.944;2023-04-03T09:41:57;3.23;;;3.03;;
10246;SDS011;5168;47.854;7.944;2023-04-03T09:44:56;3.93;;;3.30;;
10246;SDS011;5168;47.854;7.944;2023-04-03T09:47:25;3.20;;;2.90;;
10246;SDS011;5168;47.854;7.944;2023-04-03T09:50:15;3.40;;;3.10;;
10246;SDS011;5168;47.854;7.944;2023-04-03T09:52:45;3.40;;;3.10;;
10246;SDS011;5168;47.854;7.944;2023-04-03T09:57:46;3.43;;;3.17;;
10246;SDS011;5168;47.854;7.944;2023-04-03T10:00:21;3.27;;;3.07;;
10246;SDS011;5168;47.854;7.944;2023-04-03T10:02:51;3.40;;;3.20;;
10246;SDS011;5168;47.854;7.944;2023-04-03T10:05:40;3.20;;;3.00;;
10246;SDS011;5168;47.854;7.944;2023-04-03T10:08:07;3.20;;;3.00;;
10246;SDS011;5168;47.854;7.944;2023-04-03T10:10:36;3.60;;;3.30;;
10246;SDS011;5168;47.854;7.944;2023-04-03T10:13:04;3.80;;;3.50;;
10246;SDS011;5168;47.854;7.944;2023-04-03T10:15:30;3.83;;;3.20;;
10246;SDS011;5168;47.854;7.944;2023-04-03T10:18:32;3.40;;;3.10;;
10246;SDS011;5168;47.854;7.944;2023-04-03T10:29:42;3.70;;;3.10;;
10246;SDS011;5168;47.854;7.944;2023-04-03T10:34:43;3.43;;;3.23;;
10246;SDS011;5168;47.854;7.944;2023-04-03T10:40:24;3.60;;;3.30;;
10246;SDS011;5168;47.854;7.944;2023-04-03T10:43:04;4.40;;;3.40;;
10246;SDS011;5168;47.854;7.944;2023-04-03T10:45:51;3.47;;;3.17;;
10246;SDS011;5168;47.854;7.944;2023-04-03T10:53:55;3.43;;;3.23;;
10246;SDS011;5168;47.854;7.944;2023-04-03T10:56:30;3.37;;;3.10;;
10246;SDS011;5168;47.854;7.944;2023-04-03T11:01:50;3.83;;;3.53;;
10246;SDS011;5168;47.854;7.944;2023-04-03T11:04:19;3.30;;;3.00;;
10246;SDS011;5168;47.854;7.944;2023-04-03T11:06:49;3.10;;;2.90;;
10246;SDS011;5168;47.854;7.944;2023-04-03T11:11:51;4.87;;;3.23;;
10246;SDS011;5168;47.854;7.944;2023-04-03T11:14:29;3.40;;;3.10;;
10246;SDS011;5168;47.854;7.944;2023-04-03T11:17:19;3.20;;;3.00;;
10246;SDS011;5168;47.854;7.944;2023-04-03T11:22:43;3.03;;;2.83;;
10246;SDS011;5168;47.854;7.944;2023-04-03T11:27:42;3.37;;;2.90;;
10246;SDS011;5168;47.854;7.944;2023-04-03T11:30:15;3.50;;;3.20;;
10246;SDS011;5168;47.854;7.944;2023-04-03T11:35:34;3.30;;;3.10;;
10246;SDS011;5168;47.854;7.944;2023-04-03T11:38:00;3.20;;;2.90;;
10246;SDS011;5168;47.854;7.944;2023-04-03T11:40:32;3.10;;;2.90;;
10246;SDS011;5168;47.854;7.944;2023-04-03T11:43:07;3.60;;;3.30;;
10246;SDS011;5168;47.854;7.944;2023-04-03T11:45:49;3.10;;;2.83;;
10246;SDS011;5168;47.854;7.944;2023-04-03T11:50:45;3.87;;;3.50;;
10246;SDS011;5168;47.854;7.944;2023-04-03T11:58:19;3.90;;;3.60;;
10246;SDS011;5168;47.854;7.944;2023-04-03T12:13:43;3.70;;;3.40;;
10246;SDS011;5168;47.854;7.944;2023-04-03T12:16:29;3.73;;;3.43;;
10246;SDS011;5168;47.854;7.944;2023-04-03T12:27:02;4.03;;;3.13;;
10246;SDS011;5168;47.854;7.944;2023-04-03T12:29:34;3.50;;;3.23;;
10246;SDS011;5168;47.854;7.944;2023-04-03T12:37:46;3.70;;;3.40;;
10246;SDS011;5168;47.854;7.944;2023-04-03T12:46:02;4.10;;;3.50;;
10246;SDS011;5168;47.854;7.944;2023-04-03T12:48:32;5.37;;;3.93;;
10246;SDS011;5168;47.854;7.944;2023-04-03T12:51:26;3.93;;;3.53;;
10246;SDS011;5168;47.854;7.944;2023-04-03T12:57:11;3.80;;;3.50;;
10246;SDS011;5168;47.854;7.944;2023-04-03T12:59:38;4.07;;;3.77;;
10246;SDS011;5168;47.854;7.944;2023-04-03T13:02:10;4.83;;;4.03;;
10246;SDS011;5168;47.854;7.944;2023-04-03T13:04:48;4.30;;;3.90;;
10246;SDS011;5168;47.854;7.944;2023-04-03T13:07:22;4.00;;;3.60;;
10246;SDS011;5168;47.854;7.944;2023-04-03T13:10:00;4.43;;;4.13;;
10246;SDS011;5168;47.854;7.944;2023-04-03T13:12:26;3.87;;;3.57;;
10246;SDS011;5168;47.854;7.944;2023-04-03T13:14:52;3.57;;;3.27;;
10246;SDS011;5168;47.854;7.944;2023-04-03T13:17:20;4.17;;;3.60;;
10246;SDS011;5168;47.854;7.944;2023-04-03T13:19:47;3.80;;;3.50;;
10246;SDS011;5168;47.854;7.944;2023-04-03T13:25:09;4.53;;;3.70;;
10246;SDS011;5168;47.854;7.944;2023-04-03T13:27:38;4.80;;;3.67;;
10246;SDS011;5168;47.854;7.944;2023-04-03T13:30:17;3.73;;;3.43;;
10246;SDS011;5168;47.854;7.944;2023-04-03T13:32:53;4.43;;;3.20;;
10246;SDS011;5168;47.854;7.944;2023-04-03T13:35:44;3.63;;;3.30;;
10246;SDS011;5168;47.854;7.944;2023-04-03T13:40:52;3.50;;;3.20;;
10246;SDS011;5168;47.854;7.944;2023-04-03T13:43:21;3.50;;;3.20;;
10246;SDS011;5168;47.854;7.944;2023-04-03T13:48:36;4.10;;;3.63;;
10246;SDS011;5168;47.854;7.944;2023-04-03T13:51:07;3.77;;;3.47;;
10246;SDS011;5168;47.854;7.944;2023-04-03T13:58:51;3.60;;;3.30;;
10246;SDS011;5168;47.854;7.944;2023-04-03T14:01:23;4.60;;;4.00;;
10246;SDS011;5168;47.854;7.944;2023-04-03T14:06:22;3.50;;;3.30;;
10246;SDS011;5168;47.854;7.944;2023-04-03T14:08:48;3.10;;;2.90;;
10246;SDS011;5168;47.854;7.944;2023-04-03T14:11:16;4.33;;;3.70;;
10246;SDS011;5168;47.854;7.944;2023-04-03T14:13:45;4.27;;;3.40;;
10246;SDS011;5168;47.854;7.944;2023-04-03T14:16:12;3.40;;;3.10;;
10246;SDS011;5168;47.854;7.944;2023-04-03T14:18:57;3.77;;;3.47;;
10246;SDS011;5168;47.854;7.944;2023-04-03T14:21:23;3.83;;;3.53;;
10246;SDS011;5168;47.854;7.944;2023-04-03T14:23:49;3.57;;;3.30;;
10246;SDS011;5168;47.854;7.944;2023-04-03T14:26:17;3.90;;;3.60;;
10246;SDS011;5168;47.854;7.944;2023-04-03T14:28:48;3.83;;;3.53;;
10246;SDS011;5168;47.854;7.944;2023-04-03T14:31:16;3.67;;;3.37;;
10246;SDS011;5168;47.854;7.944;2023-04-03T14:33:42;4.83;;;3.47;;
10246;SDS011;5168;47.854;7.944;2023-04-03T14:36:15;4.07;;;3.37;;
10246;SDS011;5168;47.854;7.944;2023-04-03T14:38:43;3.70;;;3.40;;
10246;SDS011;5168;47.854;7.944;2023-04-03T14:41:13;3.80;;;3.50;;
10246;SDS011;5168;47.854;7.944;2023-04-03T14:43:40;3.63;;;3.37;;
10246;SDS011;5168;47.854;7.944;2023-04-03T14:46:17;3.60;;;3.30;;
10246;SDS011;5168;47.854;7.944;2023-04-03T14:48:57;3.40;;;3.20;;
10246;SDS011;5168;47.854;7.944;2023-04-03T14:51:23;4.33;;;3.17;;
10246;SDS011;5168;47.854;7.944;2023-04-03T14:53:50;4.53;;;3.70;;
10246;SDS011;5168;47.854;7.944;2023-04-03T14:56:18;3.50;;;3.20;;
10246;SDS011;5168;47.854;7.944;2023-04-03T14:58:47;4.20;;;3.80;;
10246;SDS011;5168;47.854;7.944;2023-04-03T15:01:15;4.10;;;3.50;;
10246;SDS011;5168;47.854;7.944;2023-04-03T15:03:42;3.80;;;3.50;;
10246;SDS011;5168;47.854;7.944;2023-04-03T15:06:12;3.40;;;3.13;;
10246;SDS011;5168;47.854;7.944;2023-04-03T15:08:39;3.70;;;3.40;;
10246;SDS011;5168;47.854;7.944;2023-04-03T15:11:06;4.50;;;3.20;;
10246;SDS011;5168;47.854;7.944;2023-04-03T15:13:32;4.10;;;3.70;;
10246;SDS011;5168;47.854;7.944;2023-04-03T15:15:58;3.30;;;2.93;;
10246;SDS011;5168;47.854;7.944;2023-04-03T15:18:27;3.90;;;3.60;;
10246;SDS011;5168;47.854;7.944;2023-04-03T15:21:02;3.93;;;3.63;;
10246;SDS011;5168;47.854;7.944;2023-04-03T15:23:28;3.73;;;3.43;;
10246;SDS011;5168;47.854;7.944;2023-04-03T15:25:55;3.70;;;3.40;;
10246;SDS011;5168;47.854;7.944;2023-04-03T15:30:54;4.10;;;3.70;;
10246;SDS011;5168;47.854;7.944;2023-04-03T15:33:20;4.00;;;3.60;;
10246;SDS011;5168;47.854;7.944;2023-04-03T15:35:46;4.83;;;3.80;;
10246;SDS011;5168;47.854;7.944;2023-04-03T15:38:12;3.37;;;3.17;;
10246;SDS011;5168;47.854;7.944;2023-04-03T15:40:38;3.90;;;3.50;;
10246;SDS011;5168;47.854;7.944;2023-04-03T15:43:04;4.03;;;3.63;;
10246;SDS011;5168;47.854;7.944;2023-04-03T15:45:31;4.03;;;3.63;;
10246;SDS011;5168;47.854;7.944;2023-04-03T15:47:58;3.43;;;3.13;;
10246;SDS011;5168;47.854;7.944;2023-04-03T15:50:24;3.93;;;3.63;;
10246;SDS011;5168;47.854;7.944;2023-04-03T15:52:50;3.53;;;3.23;;
10246;SDS011;5168;47.854;7.944;2023-04-03T15:55:22;3.70;;;3.33;;
10246;SDS011;5168;47.854;7.944;2023-04-03T15:57:49;3.67;;;3.37;;
10246;SDS011;5168;47.854;7.944;2023-04-03T16:00:15;4.03;;;3.73;;
10246;SDS011;5168;47.854;7.944;2023-04-03T16:02:42;3.97;;;3.43;;
10246;SDS011;5168;47.854;7.944;2023-04-03T16:05:09;3.67;;;3.37;;
10246;SDS011;5168;47.854;7.944;2023-04-03T16:07:39;3.67;;;3.37;;
10246;SDS011;5168;47.854;7.944;2023-04-03T16:10:06;4.10;;;3.70;;
10246;SDS011;5168;47.854;7.944;2023-04-03T16:12:32;3.60;;;3.30;;
10246;SDS011;5168;47.854;7.944;2023-04-03T16:14:58;3.70;;;3.50;;
10246;SDS011;5168;47.854;7.944;2023-04-03T16:17:24;4.43;;;3.63;;
10246;SDS011;5168;47.854;7.944;2023-04-03T16:19:51;3.67;;;3.37;;
10246;SDS011;5168;47.854;7.944;2023-04-03T16:22:17;4.47;;;4.07;;
10246;SDS011;5168;47.854;7.944;2023-04-03T16:24:42;3.97;;;3.67;;
10246;SDS011;5168;47.854;7.944;2023-04-03T16:27:08;3.73;;;3.43;;
10246;SDS011;5168;47.854;7.944;2023-04-03T16:29:34;3.70;;;3.40;;
10246;SDS011;5168;47.854;7.944;2023-04-03T16:32:00;3.83;;;3.53;;
10246;SDS011;5168;47.854;7.944;2023-04-03T16:34:26;4.30;;;3.80;;
10246;SDS011;5168;47.854;7.944;2023-04-03T16:36:54;4.10;;;3.70;;
10246;SDS011;5168;47.854;7.944;2023-04-03T16:39:20;3.60;;;3.10;;
10246;SDS011;5168;47.854;7.944;2023-04-03T16:41:46;3.77;;;3.47;;
10246;SDS011;5168;47.854;7.944;2023-04-03T16:44:11;5.27;;;3.87;;
10246;SDS011;5168;47.854;7.944;2023-04-03T16:46:38;4.07;;;3.67;;
10246;SDS011;5168;47.854;7.944;2023-04-03T16:49:04;5.30;;;3.40;;
10246;SDS011;5168;47.854;7.944;2023-04-03T16:51:29;3.77;;;3.47;;
10246;SDS011;5168;47.854;7.944;2023-04-03T16:53:56;3.80;;;3.50;;
10246;SDS011;5168;47.854;7.944;2023-04-03T16:56:22;3.80;;;3.50;;
10246;SDS011;5168;47.854;7.944;2023-04-03T16:58:48;5.17;;;3.80;;
10246;SDS011;5168;47.854;7.944;2023-04-03T17:01:18;3.80;;;3.50;;
10246;SDS011;5168;47.854;7.944;2023-04-03T17:03:44;4.37;;;3.63;;
10246;SDS011;5168;47.854;7.944;2023-04-03T17:06:11;3.93;;;3.60;;
10246;SDS011;5168;47.854;7.944;2023-04-03T17:08:44;3.80;;;3.50;;
10246;SDS011;5168;47.854;7.944;2023-04-03T17:11:11;3.60;;;3.23;;